sensor_id;sensor_type;location;lat;lon;timestamp;P1;durP1;ratioP1;P2;durP2;ratioP2
47021;SDS011;32779;52.264;6.154;2022-11-21T00:00:38;42.88;;;25.17;;
47021;SDS011;32779;52.264;6.154;2022-11-21T00:03:05;43.47;;;25.65;;
47021;SDS011;32779;52.264;6.154;2022-11-21T00:05:31;39.90;;;23.37;;
47021;SDS011;32779;52.264;6.154;2022-11-21T00:07:57;39.35;;;24.27;;
47021;SDS011;32779;52.264;6.154;2022-11-21T00:10:23;46.08;;;26.58;;
47021;SDS011;32779;52.264;6.154;2022-11-21T00:12:56;39.08;;;25.05;;
47021;SDS011;32779;52.264;6.154;2022-11-21T00:15:22;43.05;;;24.83;;
47021;SDS011;32779;52.264;6.154;2022-11-21T00:17:49;40.58;;;25.77;;
47021;SDS011;32779;52.264;6.154;2022-11-21T00:20:16;43.25;;;26.05;;
47021;SDS011;32779;52.264;6.154;2022-11-21T00:22:42;37.88;;;24.67;;
47021;SDS011;32779;52.264;6.154;2022-11-21T00:25:08;47.15;;;27.15;;
47021;SDS011;32779;52.264;6.154;2022-11-21T00:27:34;40.83;;;26.33;;
47021;SDS011;32779;52.264;6.154;2022-11-21T00:29:59;44.55;;;26.05;;
47021;SDS011;32779;52.264;6.154;2022-11-21T00:32:25;40.42;;;26.33;;
47021;SDS011;32779;52.264;6.154;2022-11-21T00:34:50;44.95;;;26.45;;
47021;SDS011;32779;52.264;6.154;2022-11-21T00:37:16;46.08;;;27.55;;
47021;SDS011;32779;52.264;6.154;2022-11-21T00:39:42;45.42;;;27.15;;
47021;SDS011;32779;52.264;6.154;2022-11-21T00:42:07;43.60;;;26.88;;
47021;SDS011;32779;52.264;6.154;2022-11-21T00:44:33;48.05;;;28.08;;
47021;SDS011;32779;52.264;6.154;2022-11-21T00:46:59;45.13;;;28.08;;
47021;SDS011;32779;52.264;6.154;2022-11-21T00:49:24;51.60;;;30.17;;
47021;SDS011;32779;52.264;6.154;2022-11-21T00:51:50;45.20;;;27.35;;
47021;SDS011;32779;52.264;6.154;2022-11-21T00:54:15;44.47;;;26.20;;
47021;SDS011;32779;52.264;6.154;2022-11-21T00:56:41;49.93;;;28.97;;
47021;SDS011;32779;52.264;6.154;2022-11-21T00:59:06;44.47;;;27.42;;
47021;SDS011;32779;52.264;6.154;2022-11-21T01:01:32;46.85;;;27.02;;
47021;SDS011;32779;52.264;6.154;2022-11-21T01:03:58;45.23;;;27.20;;
47021;SDS011;32779;52.264;6.154;2022-11-21T01:06:23;45.90;;;27.23;;
47021;SDS011;32779;52.264;6.154;2022-11-21T01:08:49;46.88;;;27.85;;
47021;SDS011;32779;52.264;6.154;2022-11-21T01:11:15;45.83;;;27.35;;
47021;SDS011;32779;52.264;6.154;2022-11-21T01:13:43;45.60;;;27.88;;
47021;SDS011;32779;52.264;6.154;2022-11-21T01:18:36;50.58;;;28.27;;
47021;SDS011;32779;52.264;6.154;2022-11-21T01:21:03;47.42;;;27.60;;
47021;SDS011;32779;52.264;6.154;2022-11-21T01:23:36;43.85;;;26.80;;
47021;SDS011;32779;52.264;6.154;2022-11-21T01:26:06;46.67;;;27.10;;
47021;SDS011;32779;52.264;6.154;2022-11-21T01:28:36;48.97;;;28.75;;
47021;SDS011;32779;52.264;6.154;2022-11-21T01:31:10;45.50;;;27.38;;
47021;SDS011;32779;52.264;6.154;2022-11-21T01:33:39;47.97;;;27.73;;
47021;SDS011;32779;52.264;6.154;2022-11-21T01:36:09;46.28;;;26.92;;
47021;SDS011;32779;52.264;6.154;2022-11-21T01:38:35;45.67;;;26.92;;
47021;SDS011;32779;52.264;6.154;2022-11-21T01:43:27;43.38;;;25.50;;
47021;SDS011;32779;52.264;6.154;2022-11-21T01:45:54;43.05;;;26.77;;
47021;SDS011;32779;52.264;6.154;2022-11-21T01:50:50;47.77;;;27.07;;
47021;SDS011;32779;52.264;6.154;2022-11-21T01:53:16;48.10;;;27.20;;
47021;SDS011;32779;52.264;6.154;2022-11-21T01:55:42;49.38;;;29.30;;
47021;SDS011;32779;52.264;6.154;2022-11-21T01:58:08;48.75;;;27.63;;
47021;SDS011;32779;52.264;6.154;2022-11-21T02:00:36;45.80;;;27.23;;
47021;SDS011;32779;52.264;6.154;2022-11-21T02:03:05;46.97;;;27.83;;
47021;SDS011;32779;52.264;6.154;2022-11-21T02:05:36;46.08;;;27.17;;
47021;SDS011;32779;52.264;6.154;2022-11-21T02:08:05;42.25;;;26.88;;
47021;SDS011;32779;52.264;6.154;2022-11-21T02:10:35;48.30;;;26.25;;
47021;SDS011;32779;52.264;6.154;2022-11-21T02:13:05;44.03;;;24.95;;
47021;SDS011;32779;52.264;6.154;2022-11-21T02:15:30;44.03;;;25.63;;
47021;SDS011;32779;52.264;6.154;2022-11-21T02:17:56;40.63;;;24.60;;
47021;SDS011;32779;52.264;6.154;2022-11-21T02:20:22;47.33;;;27.03;;
47021;SDS011;32779;52.264;6.154;2022-11-21T02:25:27;41.03;;;25.25;;
47021;SDS011;32779;52.264;6.154;2022-11-21T02:27:58;45.15;;;26.48;;
47021;SDS011;32779;52.264;6.154;2022-11-21T02:30:28;43.58;;;26.90;;
47021;SDS011;32779;52.264;6.154;2022-11-21T02:32:56;45.90;;;27.30;;
47021;SDS011;32779;52.264;6.154;2022-11-21T02:35:21;43.53;;;25.63;;
47021;SDS011;32779;52.264;6.154;2022-11-21T02:37:52;47.17;;;27.52;;
47021;SDS011;32779;52.264;6.154;2022-11-21T02:40:22;44.20;;;24.85;;
47021;SDS011;32779;52.264;6.154;2022-11-21T02:43:05;43.13;;;26.05;;
47021;SDS011;32779;52.264;6.154;2022-11-21T02:45:42;40.70;;;24.85;;
47021;SDS011;32779;52.264;6.154;2022-11-21T02:48:09;51.45;;;28.13;;
47021;SDS011;32779;52.264;6.154;2022-11-21T02:53:05;50.13;;;26.30;;
47021;SDS011;32779;52.264;6.154;2022-11-21T02:55:32;44.72;;;25.98;;
47021;SDS011;32779;52.264;6.154;2022-11-21T02:57:58;47.40;;;27.85;;
47021;SDS011;32779;52.264;6.154;2022-11-21T03:00:24;52.20;;;28.15;;
47021;SDS011;32779;52.264;6.154;2022-11-21T03:02:50;51.15;;;29.98;;
47021;SDS011;32779;52.264;6.154;2022-11-21T03:05:17;51.10;;;28.83;;
47021;SDS011;32779;52.264;6.154;2022-11-21T03:07:44;46.67;;;27.25;;
47021;SDS011;32779;52.264;6.154;2022-11-21T03:10:10;44.80;;;27.27;;
47021;SDS011;32779;52.264;6.154;2022-11-21T03:12:39;48.40;;;28.13;;
47021;SDS011;32779;52.264;6.154;2022-11-21T03:15:06;48.78;;;28.20;;
47021;SDS011;32779;52.264;6.154;2022-11-21T03:17:33;47.90;;;26.92;;
47021;SDS011;32779;52.264;6.154;2022-11-21T03:19:59;52.47;;;28.40;;
47021;SDS011;32779;52.264;6.154;2022-11-21T03:22:25;50.00;;;28.83;;
47021;SDS011;32779;52.264;6.154;2022-11-21T03:27:16;49.30;;;27.88;;
47021;SDS011;32779;52.264;6.154;2022-11-21T03:29:42;51.63;;;27.98;;
47021;SDS011;32779;52.264;6.154;2022-11-21T03:32:07;53.28;;;29.48;;
47021;SDS011;32779;52.264;6.154;2022-11-21T03:34:33;48.70;;;28.70;;
47021;SDS011;32779;52.264;6.154;2022-11-21T03:37:02;47.92;;;28.10;;
47021;SDS011;32779;52.264;6.154;2022-11-21T03:39:28;48.85;;;27.75;;
47021;SDS011;32779;52.264;6.154;2022-11-21T03:41:54;45.78;;;27.73;;
47021;SDS011;32779;52.264;6.154;2022-11-21T03:44:19;55.45;;;29.17;;
47021;SDS011;32779;52.264;6.154;2022-11-21T03:46:45;53.25;;;29.98;;
47021;SDS011;32779;52.264;6.154;2022-11-21T03:49:12;50.72;;;29.38;;
47021;SDS011;32779;52.264;6.154;2022-11-21T03:51:38;53.53;;;30.30;;
47021;SDS011;32779;52.264;6.154;2022-11-21T03:54:04;56.15;;;31.15;;
47021;SDS011;32779;52.264;6.154;2022-11-21T03:56:30;57.88;;;30.95;;
47021;SDS011;32779;52.264;6.154;2022-11-21T03:58:55;54.08;;;30.27;;
47021;SDS011;32779;52.264;6.154;2022-11-21T04:01:21;59.15;;;31.15;;
47021;SDS011;32779;52.264;6.154;2022-11-21T04:03:47;56.80;;;31.00;;
47021;SDS011;32779;52.264;6.154;2022-11-21T04:08:40;50.20;;;29.02;;
47021;SDS011;32779;52.264;6.154;2022-11-21T04:11:06;57.37;;;30.00;;
47021;SDS011;32779;52.264;6.154;2022-11-21T04:13:31;57.10;;;29.30;;
47021;SDS011;32779;52.264;6.154;2022-11-21T04:15:57;54.20;;;31.02;;
47021;SDS011;32779;52.264;6.154;2022-11-21T04:18:23;56.50;;;29.90;;
47021;SDS011;32779;52.264;6.154;2022-11-21T04:20:54;56.67;;;32.10;;
47021;SDS011;32779;52.264;6.154;2022-11-21T04:23:24;55.53;;;31.17;;
47021;SDS011;32779;52.264;6.154;2022-11-21T04:25:50;61.65;;;31.92;;
47021;SDS011;32779;52.264;6.154;2022-11-21T04:28:16;58.97;;;31.25;;
47021;SDS011;32779;52.264;6.154;2022-11-21T04:30:41;61.95;;;31.05;;
47021;SDS011;32779;52.264;6.154;2022-11-21T04:33:07;60.72;;;32.38;;
47021;SDS011;32779;52.264;6.154;2022-11-21T04:35:33;60.15;;;32.63;;
47021;SDS011;32779;52.264;6.154;2022-11-21T04:37:59;61.85;;;34.70;;
47021;SDS011;32779;52.264;6.154;2022-11-21T04:40:24;66.03;;;33.72;;
47021;SDS011;32779;52.264;6.154;2022-11-21T04:42:50;66.00;;;32.60;;
47021;SDS011;32779;52.264;6.154;2022-11-21T04:45:16;55.58;;;31.38;;
47021;SDS011;32779;52.264;6.154;2022-11-21T04:47:45;66.43;;;29.65;;
47021;SDS011;32779;52.264;6.154;2022-11-21T04:50:12;54.00;;;29.48;;
47021;SDS011;32779;52.264;6.154;2022-11-21T04:52:39;52.58;;;28.55;;
47021;SDS011;32779;52.264;6.154;2022-11-21T04:55:05;70.50;;;29.13;;
47021;SDS011;32779;52.264;6.154;2022-11-21T04:57:32;84.50;;;28.35;;
47021;SDS011;32779;52.264;6.154;2022-11-21T04:59:58;48.92;;;25.85;;
47021;SDS011;32779;52.264;6.154;2022-11-21T05:02:23;189.13;;;27.20;;
47021;SDS011;32779;52.264;6.154;2022-11-21T05:04:49;178.07;;;27.10;;
47021;SDS011;32779;52.264;6.154;2022-11-21T05:07:15;52.42;;;28.02;;
47021;SDS011;32779;52.264;6.154;2022-11-21T05:12:08;261.23;;;28.35;;
47021;SDS011;32779;52.264;6.154;2022-11-21T05:14:53;130.18;;;28.85;;
47021;SDS011;32779;52.264;6.154;2022-11-21T05:17:19;52.10;;;29.75;;
47021;SDS011;32779;52.264;6.154;2022-11-21T05:19:45;45.35;;;27.25;;
47021;SDS011;32779;52.264;6.154;2022-11-21T05:22:10;72.20;;;29.42;;
47021;SDS011;32779;52.264;6.154;2022-11-21T05:24:36;113.60;;;30.88;;
47021;SDS011;32779;52.264;6.154;2022-11-21T05:27:02;102.25;;;29.23;;
47021;SDS011;32779;52.264;6.154;2022-11-21T05:29:28;59.22;;;31.85;;
47021;SDS011;32779;52.264;6.154;2022-11-21T05:31:53;55.55;;;29.00;;
47021;SDS011;32779;52.264;6.154;2022-11-21T05:34:19;299.35;;;32.67;;
47021;SDS011;32779;52.264;6.154;2022-11-21T05:36:45;304.57;;;33.03;;
47021;SDS011;32779;52.264;6.154;2022-11-21T05:39:10;62.90;;;31.02;;
47021;SDS011;32779;52.264;6.154;2022-11-21T05:41:36;182.98;;;30.70;;
47021;SDS011;32779;52.264;6.154;2022-11-21T05:44:01;149.77;;;30.33;;
47021;SDS011;32779;52.264;6.154;2022-11-21T05:46:27;78.63;;;32.23;;
47021;SDS011;32779;52.264;6.154;2022-11-21T05:48:53;230.13;;;32.67;;
47021;SDS011;32779;52.264;6.154;2022-11-21T05:51:19;115.15;;;33.03;;
47021;SDS011;32779;52.264;6.154;2022-11-21T05:53:46;317.92;;;35.78;;
47021;SDS011;32779;52.264;6.154;2022-11-21T05:58:39;155.32;;;32.50;;
47021;SDS011;32779;52.264;6.154;2022-11-21T06:01:05;96.70;;;35.17;;
47021;SDS011;32779;52.264;6.154;2022-11-21T06:03:33;62.47;;;33.28;;
47021;SDS011;32779;52.264;6.154;2022-11-21T06:06:13;74.80;;;32.33;;
47021;SDS011;32779;52.264;6.154;2022-11-21T06:08:44;54.75;;;30.83;;
47021;SDS011;32779;52.264;6.154;2022-11-21T06:11:14;63.42;;;30.83;;
47021;SDS011;32779;52.264;6.154;2022-11-21T06:13:40;65.93;;;30.48;;
47021;SDS011;32779;52.264;6.154;2022-11-21T06:16:07;54.17;;;29.90;;
47021;SDS011;32779;52.264;6.154;2022-11-21T06:18:35;73.80;;;31.48;;
47021;SDS011;32779;52.264;6.154;2022-11-21T06:21:03;241.38;;;31.73;;
47021;SDS011;32779;52.264;6.154;2022-11-21T06:23:31;267.05;;;33.05;;
47021;SDS011;32779;52.264;6.154;2022-11-21T06:25:58;265.55;;;35.30;;
47021;SDS011;32779;52.264;6.154;2022-11-21T06:28:26;106.70;;;33.53;;
47021;SDS011;32779;52.264;6.154;2022-11-21T06:30:54;181.73;;;33.13;;
47021;SDS011;32779;52.264;6.154;2022-11-21T06:33:20;257.50;;;36.05;;
47021;SDS011;32779;52.264;6.154;2022-11-21T06:35:45;148.25;;;31.75;;
47021;SDS011;32779;52.264;6.154;2022-11-21T06:38:11;237.63;;;32.38;;
47021;SDS011;32779;52.264;6.154;2022-11-21T06:40:42;171.10;;;33.28;;
47021;SDS011;32779;52.264;6.154;2022-11-21T06:43:08;97.30;;;33.45;;
47021;SDS011;32779;52.264;6.154;2022-11-21T06:45:34;63.10;;;31.80;;
47021;SDS011;32779;52.264;6.154;2022-11-21T06:48:02;83.03;;;31.23;;
47021;SDS011;32779;52.264;6.154;2022-11-21T06:50:29;197.70;;;30.90;;
47021;SDS011;32779;52.264;6.154;2022-11-21T06:52:58;63.50;;;28.88;;
47021;SDS011;32779;52.264;6.154;2022-11-21T06:55:24;113.03;;;26.60;;
47021;SDS011;32779;52.264;6.154;2022-11-21T06:57:52;183.45;;;28.88;;
47021;SDS011;32779;52.264;6.154;2022-11-21T07:02:45;85.82;;;27.85;;
47021;SDS011;32779;52.264;6.154;2022-11-21T07:05:11;52.17;;;27.80;;
47021;SDS011;32779;52.264;6.154;2022-11-21T07:07:36;90.00;;;28.20;;
47021;SDS011;32779;52.264;6.154;2022-11-21T07:10:02;131.88;;;28.48;;
47021;SDS011;32779;52.264;6.154;2022-11-21T07:12:28;211.43;;;28.45;;
47021;SDS011;32779;52.264;6.154;2022-11-21T07:15:12;120.50;;;28.88;;
47021;SDS011;32779;52.264;6.154;2022-11-21T07:17:38;84.95;;;30.55;;
47021;SDS011;32779;52.264;6.154;2022-11-21T07:20:03;93.75;;;29.48;;
47021;SDS011;32779;52.264;6.154;2022-11-21T07:22:29;159.35;;;29.70;;
47021;SDS011;32779;52.264;6.154;2022-11-21T07:24:55;128.38;;;29.13;;
47021;SDS011;32779;52.264;6.154;2022-11-21T07:27:20;83.50;;;29.73;;
47021;SDS011;32779;52.264;6.154;2022-11-21T07:29:46;128.77;;;31.90;;
47021;SDS011;32779;52.264;6.154;2022-11-21T07:32:12;93.72;;;30.92;;
47021;SDS011;32779;52.264;6.154;2022-11-21T07:34:38;67.65;;;29.33;;
47021;SDS011;32779;52.264;6.154;2022-11-21T07:37:03;68.13;;;31.67;;
47021;SDS011;32779;52.264;6.154;2022-11-21T07:39:29;63.58;;;30.27;;
47021;SDS011;32779;52.264;6.154;2022-11-21T07:41:54;60.45;;;30.20;;
47021;SDS011;32779;52.264;6.154;2022-11-21T07:44:20;73.18;;;28.63;;
47021;SDS011;32779;52.264;6.154;2022-11-21T07:46:45;71.93;;;27.33;;
47021;SDS011;32779;52.264;6.154;2022-11-21T07:49:11;131.82;;;31.20;;
47021;SDS011;32779;52.264;6.154;2022-11-21T07:51:37;55.93;;;26.67;;
47021;SDS011;32779;52.264;6.154;2022-11-21T07:54:02;124.57;;;27.90;;
47021;SDS011;32779;52.264;6.154;2022-11-21T07:56:28;74.05;;;27.85;;
47021;SDS011;32779;52.264;6.154;2022-11-21T07:58:53;45.03;;;26.37;;
47021;SDS011;32779;52.264;6.154;2022-11-21T08:01:19;70.73;;;27.53;;
47021;SDS011;32779;52.264;6.154;2022-11-21T08:03:45;92.93;;;28.48;;
47021;SDS011;32779;52.264;6.154;2022-11-21T08:06:11;66.07;;;26.10;;
47021;SDS011;32779;52.264;6.154;2022-11-21T08:11:03;58.78;;;25.92;;
47021;SDS011;32779;52.264;6.154;2022-11-21T08:13:29;61.00;;;27.67;;
47021;SDS011;32779;52.264;6.154;2022-11-21T08:15:55;80.38;;;25.63;;
47021;SDS011;32779;52.264;6.154;2022-11-21T08:18:20;45.42;;;24.77;;
47021;SDS011;32779;52.264;6.154;2022-11-21T08:20:46;57.58;;;25.02;;
47021;SDS011;32779;52.264;6.154;2022-11-21T08:23:11;90.25;;;23.58;;
47021;SDS011;32779;52.264;6.154;2022-11-21T08:25:37;69.97;;;25.10;;
47021;SDS011;32779;52.264;6.154;2022-11-21T08:28:05;64.55;;;24.35;;
47021;SDS011;32779;52.264;6.154;2022-11-21T08:30:31;70.55;;;24.85;;
47021;SDS011;32779;52.264;6.154;2022-11-21T08:32:57;56.90;;;23.80;;
47021;SDS011;32779;52.264;6.154;2022-11-21T08:35:24;54.05;;;24.27;;
47021;SDS011;32779;52.264;6.154;2022-11-21T08:37:57;47.38;;;23.23;;
47021;SDS011;32779;52.264;6.154;2022-11-21T08:40:23;44.55;;;24.17;;
47021;SDS011;32779;52.264;6.154;2022-11-21T08:42:57;54.83;;;25.00;;
47021;SDS011;32779;52.264;6.154;2022-11-21T08:45:24;61.95;;;23.27;;
47021;SDS011;32779;52.264;6.154;2022-11-21T08:47:50;57.65;;;24.85;;
47021;SDS011;32779;52.264;6.154;2022-11-21T08:50:16;50.75;;;25.75;;
47021;SDS011;32779;52.264;6.154;2022-11-21T08:52:41;47.33;;;25.75;;
47021;SDS011;32779;52.264;6.154;2022-11-21T08:55:07;42.25;;;23.98;;
47021;SDS011;32779;52.264;6.154;2022-11-21T09:00:02;51.75;;;24.48;;
47021;SDS011;32779;52.264;6.154;2022-11-21T09:02:29;52.92;;;26.20;;
47021;SDS011;32779;52.264;6.154;2022-11-21T09:04:55;46.88;;;26.70;;
47021;SDS011;32779;52.264;6.154;2022-11-21T09:07:20;49.78;;;27.38;;
47021;SDS011;32779;52.264;6.154;2022-11-21T09:09:46;54.97;;;28.00;;
47021;SDS011;32779;52.264;6.154;2022-11-21T09:12:11;54.97;;;28.67;;
47021;SDS011;32779;52.264;6.154;2022-11-21T09:14:37;58.45;;;29.27;;
47021;SDS011;32779;52.264;6.154;2022-11-21T09:17:21;52.13;;;28.58;;
47021;SDS011;32779;52.264;6.154;2022-11-21T09:20:05;52.53;;;29.08;;
47021;SDS011;32779;52.264;6.154;2022-11-21T09:22:31;57.90;;;29.52;;
47021;SDS011;32779;52.264;6.154;2022-11-21T09:24:56;59.20;;;30.58;;
47021;SDS011;32779;52.264;6.154;2022-11-21T09:27:22;53.83;;;30.17;;
47021;SDS011;32779;52.264;6.154;2022-11-21T09:29:47;51.13;;;30.13;;
47021;SDS011;32779;52.264;6.154;2022-11-21T09:32:13;51.20;;;29.10;;
47021;SDS011;32779;52.264;6.154;2022-11-21T09:34:38;49.78;;;28.02;;
47021;SDS011;32779;52.264;6.154;2022-11-21T09:37:07;46.53;;;27.50;;
47021;SDS011;32779;52.264;6.154;2022-11-21T09:39:32;47.85;;;26.15;;
47021;SDS011;32779;52.264;6.154;2022-11-21T09:42:15;40.75;;;25.08;;
47021;SDS011;32779;52.264;6.154;2022-11-21T09:50:02;40.75;;;24.70;;
47021;SDS011;32779;52.264;6.154;2022-11-21T09:55:43;41.90;;;22.38;;
47021;SDS011;32779;52.264;6.154;2022-11-21T09:58:28;40.70;;;24.50;;
47021;SDS011;32779;52.264;6.154;2022-11-21T10:01:04;39.17;;;23.15;;
47021;SDS011;32779;52.264;6.154;2022-11-21T10:03:30;37.08;;;22.60;;
47021;SDS011;32779;52.264;6.154;2022-11-21T10:06:03;39.08;;;22.70;;
47021;SDS011;32779;52.264;6.154;2022-11-21T10:14:35;40.65;;;22.35;;
47021;SDS011;32779;52.264;6.154;2022-11-21T10:20:10;33.22;;;22.17;;
47021;SDS011;32779;52.264;6.154;2022-11-21T10:22:57;41.88;;;23.75;;
47021;SDS011;32779;52.264;6.154;2022-11-21T10:25:49;37.90;;;21.88;;
47021;SDS011;32779;52.264;6.154;2022-11-21T10:28:41;38.17;;;22.27;;
47021;SDS011;32779;52.264;6.154;2022-11-21T10:31:14;37.58;;;21.80;;
47021;SDS011;32779;52.264;6.154;2022-11-21T10:33:40;39.38;;;22.63;;
47021;SDS011;32779;52.264;6.154;2022-11-21T10:36:08;36.03;;;23.15;;
47021;SDS011;32779;52.264;6.154;2022-11-21T10:39:02;41.92;;;22.92;;
47021;SDS011;32779;52.264;6.154;2022-11-21T10:44:24;41.67;;;23.33;;
47021;SDS011;32779;52.264;6.154;2022-11-21T10:47:17;42.65;;;23.23;;
47021;SDS011;32779;52.264;6.154;2022-11-21T10:52:47;41.17;;;24.27;;
47021;SDS011;32779;52.264;6.154;2022-11-21T10:55:15;45.03;;;24.55;;
47021;SDS011;32779;52.264;6.154;2022-11-21T10:57:46;45.00;;;24.45;;
47021;SDS011;32779;52.264;6.154;2022-11-21T11:05:22;43.13;;;25.77;;
47021;SDS011;32779;52.264;6.154;2022-11-21T11:07:59;52.25;;;26.30;;
47021;SDS011;32779;52.264;6.154;2022-11-21T11:10:38;56.22;;;27.65;;
47021;SDS011;32779;52.264;6.154;2022-11-21T11:15:54;47.65;;;25.48;;
47021;SDS011;32779;52.264;6.154;2022-11-21T11:18:26;45.45;;;25.85;;
47021;SDS011;32779;52.264;6.154;2022-11-21T11:20:52;49.05;;;26.25;;
47021;SDS011;32779;52.264;6.154;2022-11-21T11:23:38;49.33;;;25.23;;
47021;SDS011;32779;52.264;6.154;2022-11-21T11:26:13;48.28;;;26.02;;
47021;SDS011;32779;52.264;6.154;2022-11-21T11:28:45;55.83;;;26.08;;
47021;SDS011;32779;52.264;6.154;2022-11-21T11:31:11;57.20;;;28.30;;
47021;SDS011;32779;52.264;6.154;2022-11-21T11:33:37;61.25;;;30.10;;
47021;SDS011;32779;52.264;6.154;2022-11-21T11:38:35;69.15;;;31.25;;
47021;SDS011;32779;52.264;6.154;2022-11-21T11:41:02;62.03;;;29.23;;
47021;SDS011;32779;52.264;6.154;2022-11-21T11:43:44;68.13;;;31.23;;
47021;SDS011;32779;52.264;6.154;2022-11-21T11:46:52;60.75;;;30.33;;
47021;SDS011;32779;52.264;6.154;2022-11-21T11:49:52;69.15;;;31.02;;
47021;SDS011;32779;52.264;6.154;2022-11-21T11:52:48;68.72;;;31.13;;
47021;SDS011;32779;52.264;6.154;2022-11-21T11:55:38;73.25;;;32.88;;
47021;SDS011;32779;52.264;6.154;2022-11-21T12:03:57;73.50;;;32.38;;
47021;SDS011;32779;52.264;6.154;2022-11-21T12:06:29;74.78;;;33.10;;
47021;SDS011;32779;52.264;6.154;2022-11-21T12:09:19;81.22;;;34.13;;
47021;SDS011;32779;52.264;6.154;2022-11-21T12:11:58;102.13;;;35.17;;
47021;SDS011;32779;52.264;6.154;2022-11-21T12:20:33;91.88;;;36.63;;
47021;SDS011;32779;52.264;6.154;2022-11-21T12:23:06;79.80;;;35.40;;
47021;SDS011;32779;52.264;6.154;2022-11-21T12:25:36;84.43;;;34.35;;
47021;SDS011;32779;52.264;6.154;2022-11-21T12:28:13;79.68;;;34.75;;
47021;SDS011;32779;52.264;6.154;2022-11-21T12:31:14;79.47;;;36.05;;
47021;SDS011;32779;52.264;6.154;2022-11-21T12:39:47;82.90;;;36.53;;
47021;SDS011;32779;52.264;6.154;2022-11-21T12:54:49;93.20;;;37.08;;
47021;SDS011;32779;52.264;6.154;2022-11-21T12:57:35;94.35;;;37.38;;
47021;SDS011;32779;52.264;6.154;2022-11-21T13:00:24;99.97;;;36.72;;
47021;SDS011;32779;52.264;6.154;2022-11-21T13:06:04;87.45;;;37.28;;
47021;SDS011;32779;52.264;6.154;2022-11-21T13:08:36;102.03;;;38.67;;
47021;SDS011;32779;52.264;6.154;2022-11-21T13:11:17;99.78;;;39.03;;
47021;SDS011;32779;52.264;6.154;2022-11-21T13:14:05;86.28;;;37.88;;
47021;SDS011;32779;52.264;6.154;2022-11-21T13:16:57;92.55;;;36.08;;
47021;SDS011;32779;52.264;6.154;2022-11-21T13:19:53;86.53;;;36.30;;
47021;SDS011;32779;52.264;6.154;2022-11-21T13:25:01;96.75;;;39.00;;
47021;SDS011;32779;52.264;6.154;2022-11-21T13:27:29;99.32;;;39.58;;
47021;SDS011;32779;52.264;6.154;2022-11-21T13:32:42;100.88;;;40.17;;
47021;SDS011;32779;52.264;6.154;2022-11-21T13:53:56;96.28;;;40.00;;
47021;SDS011;32779;52.264;6.154;2022-11-21T14:04:56;99.55;;;40.25;;
47021;SDS011;32779;52.264;6.154;2022-11-21T14:07:29;104.88;;;42.13;;
47021;SDS011;32779;52.264;6.154;2022-11-21T14:10:03;106.75;;;41.45;;
47021;SDS011;32779;52.264;6.154;2022-11-21T14:12:41;102.63;;;41.75;;
47021;SDS011;32779;52.264;6.154;2022-11-21T14:26:00;89.97;;;36.97;;
47021;SDS011;32779;52.264;6.154;2022-11-21T14:30:53;85.25;;;37.75;;
47021;SDS011;32779;52.264;6.154;2022-11-21T14:33:35;84.25;;;38.75;;
47021;SDS011;32779;52.264;6.154;2022-11-21T14:41:10;90.25;;;36.13;;
47021;SDS011;32779;52.264;6.154;2022-11-21T14:43:59;88.72;;;37.17;;
47021;SDS011;32779;52.264;6.154;2022-11-21T14:46:34;91.22;;;38.28;;
47021;SDS011;32779;52.264;6.154;2022-11-21T14:51:46;101.70;;;38.83;;
47021;SDS011;32779;52.264;6.154;2022-11-21T14:54:18;84.35;;;37.30;;
47021;SDS011;32779;52.264;6.154;2022-11-21T14:56:47;80.65;;;36.08;;
47021;SDS011;32779;52.264;6.154;2022-11-21T15:01:54;101.75;;;36.00;;
47021;SDS011;32779;52.264;6.154;2022-11-21T15:04:25;102.10;;;39.15;;
47021;SDS011;32779;52.264;6.154;2022-11-21T15:06:53;93.82;;;39.00;;
47021;SDS011;32779;52.264;6.154;2022-11-21T15:09:19;86.22;;;36.75;;
47021;SDS011;32779;52.264;6.154;2022-11-21T15:11:51;95.32;;;37.47;;
47021;SDS011;32779;52.264;6.154;2022-11-21T15:14:19;99.60;;;38.42;;
47021;SDS011;32779;52.264;6.154;2022-11-21T15:16:54;99.57;;;37.63;;
47021;SDS011;32779;52.264;6.154;2022-11-21T15:19:22;102.20;;;37.78;;
47021;SDS011;32779;52.264;6.154;2022-11-21T15:21:50;105.95;;;37.75;;
47021;SDS011;32779;52.264;6.154;2022-11-21T15:24:29;95.60;;;37.03;;
47021;SDS011;32779;52.264;6.154;2022-11-21T15:43:34;88.70;;;36.88;;
47021;SDS011;32779;52.264;6.154;2022-11-21T15:46:00;108.85;;;38.92;;
47021;SDS011;32779;52.264;6.154;2022-11-21T15:48:27;85.80;;;37.17;;
47021;SDS011;32779;52.264;6.154;2022-11-21T15:50:53;94.75;;;37.78;;
47021;SDS011;32779;52.264;6.154;2022-11-21T15:53:20;96.10;;;38.83;;
47021;SDS011;32779;52.264;6.154;2022-11-21T15:55:46;95.30;;;39.72;;
47021;SDS011;32779;52.264;6.154;2022-11-21T15:58:11;93.22;;;40.97;;
47021;SDS011;32779;52.264;6.154;2022-11-21T16:00:37;97.30;;;40.05;;
47021;SDS011;32779;52.264;6.154;2022-11-21T16:03:02;92.68;;;39.92;;
47021;SDS011;32779;52.264;6.154;2022-11-21T16:05:28;98.32;;;41.13;;
47021;SDS011;32779;52.264;6.154;2022-11-21T16:07:53;105.55;;;41.72;;
47021;SDS011;32779;52.264;6.154;2022-11-21T16:10:19;104.40;;;42.47;;
47021;SDS011;32779;52.264;6.154;2022-11-21T16:12:45;104.68;;;44.15;;
47021;SDS011;32779;52.264;6.154;2022-11-21T16:15:11;119.95;;;48.67;;
47021;SDS011;32779;52.264;6.154;2022-11-21T16:17:37;112.15;;;48.28;;
47021;SDS011;32779;52.264;6.154;2022-11-21T16:20:04;109.85;;;46.00;;
47021;SDS011;32779;52.264;6.154;2022-11-21T16:22:30;117.75;;;47.90;;
47021;SDS011;32779;52.264;6.154;2022-11-21T16:24:55;120.13;;;48.35;;
47021;SDS011;32779;52.264;6.154;2022-11-21T16:27:21;107.78;;;46.15;;
47021;SDS011;32779;52.264;6.154;2022-11-21T16:29:47;115.93;;;46.75;;
47021;SDS011;32779;52.264;6.154;2022-11-21T16:32:12;115.15;;;45.83;;
47021;SDS011;32779;52.264;6.154;2022-11-21T16:34:38;123.85;;;49.17;;
47021;SDS011;32779;52.264;6.154;2022-11-21T16:37:03;112.93;;;46.03;;
47021;SDS011;32779;52.264;6.154;2022-11-21T16:39:29;122.45;;;47.72;;
47021;SDS011;32779;52.264;6.154;2022-11-21T16:41:54;118.70;;;47.35;;
47021;SDS011;32779;52.264;6.154;2022-11-21T16:44:20;123.72;;;45.90;;
47021;SDS011;32779;52.264;6.154;2022-11-21T16:46:46;117.40;;;46.83;;
47021;SDS011;32779;52.264;6.154;2022-11-21T16:49:13;113.22;;;46.13;;
47021;SDS011;32779;52.264;6.154;2022-11-21T16:51:38;116.80;;;47.35;;
47021;SDS011;32779;52.264;6.154;2022-11-21T16:54:04;115.90;;;47.00;;
47021;SDS011;32779;52.264;6.154;2022-11-21T16:56:30;115.30;;;48.10;;
47021;SDS011;32779;52.264;6.154;2022-11-21T16:58:55;111.32;;;46.10;;
47021;SDS011;32779;52.264;6.154;2022-11-21T17:01:22;108.57;;;46.40;;
47021;SDS011;32779;52.264;6.154;2022-11-21T17:03:49;107.78;;;45.83;;
47021;SDS011;32779;52.264;6.154;2022-11-21T17:06:16;114.78;;;45.30;;
47021;SDS011;32779;52.264;6.154;2022-11-21T17:08:44;98.85;;;44.40;;
47021;SDS011;32779;52.264;6.154;2022-11-21T17:11:13;112.20;;;45.15;;
47021;SDS011;32779;52.264;6.154;2022-11-21T17:13:41;108.30;;;42.88;;
47021;SDS011;32779;52.264;6.154;2022-11-21T17:18:34;104.67;;;44.60;;
47021;SDS011;32779;52.264;6.154;2022-11-21T17:21:03;106.47;;;43.95;;